Time;durP1;ratioP1;P1;durP2;ratioP2;P2;SDS_P1;SDS_P2;PMS_P1;PMS_P2;Temp;Humidity;BMP_temperature;BMP_pressure;BME280_temperature;BME280_humidity;BME280_pressure;Samples;Min_cycle;Max_cycle;Signal;HPM_P1;HPM_P2
2022/02/19 00:01:43;;;;;;;;;;;;;;;29.23;63.18;101079.25;4985512;28;70544;-41
2022/02/19 00:04:13;;;;;;;;;;;;;;;29.28;63.19;101082.16;4988436;28;66701;-41
2022/02/19 00:06:43;;;;;;;;;;;;;;;29.31;63.48;101082.59;4985470;28;69563;-41
2022/02/19 00:09:12;;;;;;;;;;;;;;;29.33;63.04;101085.91;4984584;28;65916;-42
2022/02/19 00:11:42;;;;;;;;;;;;;;;29.37;64.98;101095.28;4979257;28;70548;-40
2022/02/19 00:14:12;;;;;;;;;;;;;;;29.29;67.31;101105.47;4983736;28;66609;-40
2022/02/19 00:16:42;;;;;;;;;;;;;;;29.24;68.93;101108.75;4982814;28;69168;-40
2022/02/19 00:19:12;;;;;;;;;;;;;;;29.18;69.26;101109.59;4980643;28;66553;-40
2022/02/19 00:21:41;;;;;;;;;;;;;;;29.14;70.01;101108.31;4977816;28;69976;-40
2022/02/19 00:24:12;;;;;;;;;;;;;;;29.15;69.05;101110.81;4993337;28;67165;-41
2022/02/19 00:26:41;;;;;;;;;;;;;;;29.23;68.80;101117.91;4977076;28;70879;-39
2022/02/19 00:29:11;;;;;;;;;;;;;;;29.28;68.21;101126.25;4974098;28;65959;-42
2022/02/19 00:31:41;;;;;;;;;;;;;;;29.34;67.37;101122.72;4971532;28;70244;-40
2022/02/19 00:34:11;;;;;;;;;;;;;;;29.39;68.22;101131.06;4964905;28;66595;-42
2022/02/19 00:36:41;;;;;;;;;;;;;;;29.45;67.77;101128.53;4972985;28;69879;-41
2022/02/19 00:39:12;;;;;;;;;;;;;;;29.47;67.73;101123.78;4972135;28;66762;-41
2022/02/19 00:41:42;;;;;;;;;;;;;;;29.50;67.27;101128.78;4972400;28;71460;-40
2022/02/19 00:44:12;;;;;;;;;;;;;;;29.53;67.66;101136.47;4972395;28;66446;-41
2022/02/19 00:46:42;;;;;;;;;;;;;;;29.57;66.04;101132.34;4975911;28;69779;-42
2022/02/19 00:49:12;;;;;;;;;;;;;;;29.62;66.00;101127.97;4977057;28;66968;-44
2022/02/19 00:51:42;;;;;;;;;;;;;;;29.69;65.58;101138.00;4976084;28;69421;-43
2022/02/19 00:54:12;;;;;;;;;;;;;;;29.74;65.78;101130.91;4975470;28;66948;-42
2022/02/19 00:56:41;;;;;;;;;;;;;;;29.80;65.56;101137.38;4976159;28;69712;-42
2022/02/19 00:59:11;;;;;;;;;;;;;;;29.84;65.27;101136.75;4953121;28;66137;-42
2022/02/19 01:01:45;;;;;;;;;;;;;;;29.90;64.91;101145.91;4970121;28;70100;-42
2022/02/19 01:04:47;;;;;;;;;;;;;;;29.95;64.64;101146.13;4992674;28;66437;-41
2022/02/19 01:07:17;;;;;;;;;;;;;;;30.00;64.21;101150.91;4973382;28;70170;-41
2022/02/19 01:09:47;;;;;;;;;;;;;;;30.03;64.18;101139.66;4957053;28;66292;-42
2022/02/19 01:12:16;;;;;;;;;;;;;;;30.06;63.50;101144.66;4959767;28;70315;-42
2022/02/19 01:14:47;;;;;;;;;;;;;;;30.09;63.57;101149.66;4957195;28;65389;-42
2022/02/19 01:17:17;;;;;;;;;;;;;;;30.11;63.21;101152.97;4957397;28;69558;-42
2022/02/19 01:19:47;;;;;;;;;;;;;;;30.15;63.10;101148.00;4971664;28;65677;-42
2022/02/19 01:22:17;;;;;;;;;;;;;;;30.17;62.24;101154.00;4973009;28;70675;-42
2022/02/19 01:24:47;;;;;;;;;;;;;;;30.19;62.22;101152.78;4974693;28;66294;-41
2022/02/19 01:27:17;;;;;;;;;;;;;;;30.21;62.39;101158.81;4972137;28;69448;-42
2022/02/19 01:29:47;;;;;;;;;;;;;;;30.23;61.53;101162.19;4963487;28;66739;-42
2022/02/19 01:32:18;;;;;;;;;;;;;;;30.26;61.76;101161.75;4976039;28;70497;-42
2022/02/19 01:34:47;;;;;;;;;;;;;;;30.28;61.06;101165.09;4973676;28;67063;-42
2022/02/19 01:37:18;;;;;;;;;;;;;;;30.30;60.82;101173.00;4971838;28;70986;-41
2022/02/19 01:39:48;;;;;;;;;;;;;;;30.33;60.66;101174.44;4973359;28;66590;-42
2022/02/19 01:42:18;;;;;;;;;;;;;;;30.35;60.77;101180.50;4974697;28;70259;-42
2022/02/19 01:44:50;;;;;;;;;;;;;;;30.37;61.01;101183.78;4974695;28;66000;-42
2022/02/19 01:47:20;;;;;;;;;;;;;;;30.38;60.48;101175.47;4973145;28;70320;-41
2022/02/19 01:49:50;;;;;;;;;;;;;;;30.41;59.86;101182.34;4948666;28;65812;-41
2022/02/19 01:52:23;;;;;;;;;;;;;;;30.42;60.00;101182.16;4962723;28;70165;-42
2022/02/19 01:54:54;;;;;;;;;;;;;;;30.44;59.78;101179.22;4954733;28;66872;-40
2022/02/19 01:57:42;;;;;;;;;;;;;;;30.47;59.51;101189.63;4977174;28;71014;-42
2022/02/19 02:00:18;;;;;;;;;;;;;;;30.49;60.05;101184.84;4977139;27;66666;-42
2022/02/19 02:03:00;;;;;;;;;;;;;;;30.53;60.16;101190.66;4972034;28;70505;-42
2022/02/19 02:05:53;;;;;;;;;;;;;;;30.54;59.58;101190.47;4973811;28;66548;-42
2022/02/19 02:08:23;;;;;;;;;;;;;;;30.57;60.00;101195.44;4978123;28;70258;-42
2022/02/19 02:10:53;;;;;;;;;;;;;;;30.59;59.76;101187.09;4988969;28;66994;-41
2022/02/19 02:13:33;;;;;;;;;;;;;;;30.60;59.58;101186.91;4976140;28;70495;-41
2022/02/19 02:16:03;;;;;;;;;;;;;;;30.63;59.67;101191.91;4981461;28;65736;-42
2022/02/19 02:18:53;;;;;;;;;;;;;;;30.65;59.84;101194.41;4971842;28;68499;-41
2022/02/19 02:21:24;;;;;;;;;;;;;;;30.66;58.87;101205.00;4961877;28;65476;-42
2022/02/19 02:23:55;;;;;;;;;;;;;;;30.68;58.95;101202.94;4977384;28;70253;-41
2022/02/19 02:26:24;;;;;;;;;;;;;;;30.71;58.89;101207.91;4975198;28;66314;-41
2022/02/19 02:28:54;;;;;;;;;;;;;;;30.73;59.32;101208.53;4972351;28;70512;-42
2022/02/19 02:31:25;;;;;;;;;;;;;;;30.73;58.76;101200.41;4977469;28;65924;-42
2022/02/19 02:33:54;;;;;;;;;;;;;;;30.76;58.61;101204.59;4974842;28;70283;-41
2022/02/19 02:36:25;;;;;;;;;;;;;;;30.79;57.48;101203.34;4984731;28;66910;-42
2022/02/19 02:38:58;;;;;;;;;;;;;;;30.80;57.57;101205.00;4973525;28;70074;-41
2022/02/19 02:41:28;;;;;;;;;;;;;;;30.82;57.90;101203.75;4973388;28;67647;-41
2022/02/19 02:44:05;;;;;;;;;;;;;;;30.84;57.81;101206.25;4970308;28;70220;-42
2022/02/19 02:46:35;;;;;;;;;;;;;;;30.86;57.63;101199.56;4979704;28;66377;-42
2022/02/19 02:49:08;;;;;;;;;;;;;;;30.89;57.03;101201.84;4971748;28;69736;-42
2022/02/19 02:51:39;;;;;;;;;;;;;;;30.90;56.89;101205.41;4971283;28;66861;-41
2022/02/19 02:54:09;;;;;;;;;;;;;;;30.92;56.80;101204.16;4982956;28;70451;-42
2022/02/19 02:56:41;;;;;;;;;;;;;;;30.94;56.16;101193.09;4973519;28;67012;-41
2022/02/19 02:59:10;;;;;;;;;;;;;;;30.96;57.09;101193.72;4974805;28;69703;-41
2022/02/19 03:01:41;;;;;;;;;;;;;;;30.97;56.69;101184.53;4973808;28;66904;-41
2022/02/19 03:04:11;;;;;;;;;;;;;;;30.99;56.94;101182.47;4974405;28;69835;-42
2022/02/19 03:06:42;;;;;;;;;;;;;;;31.01;57.18;101180.38;4975993;28;67408;-43
2022/02/19 03:09:12;;;;;;;;;;;;;;;31.03;57.51;101178.25;4979081;28;69380;-41
2022/02/19 03:11:41;;;;;;;;;;;;;;;31.05;56.29;101170.75;4969558;28;66791;-43
2022/02/19 03:14:11;;;;;;;;;;;;;;;31.07;56.62;101174.09;4973618;28;69447;-42
2022/02/19 03:16:41;;;;;;;;;;;;;;;31.08;56.58;101170.31;4974287;28;65756;-42
2022/02/19 03:19:11;;;;;;;;;;;;;;;31.11;55.90;101169.88;4984443;28;69955;-41
2022/02/19 03:21:41;;;;;;;;;;;;;;;31.12;56.48;101159.88;4974661;28;66190;-41
2022/02/19 03:24:10;;;;;;;;;;;;;;;31.14;55.77;101155.91;4973529;28;69287;-42
2022/02/19 03:26:41;;;;;;;;;;;;;;;31.18;55.92;101153.63;4973659;28;67210;-42
2022/02/19 03:29:16;;;;;;;;;;;;;;;31.20;55.20;101156.09;4955300;28;70778;-42
2022/02/19 03:31:49;;;;;;;;;;;;;;;31.22;55.73;101154.00;4955033;28;66242;-41
2022/02/19 03:34:24;;;;;;;;;;;;;;;31.24;55.53;101141.09;4941984;28;69182;-42
2022/02/19 03:36:54;;;;;;;;;;;;;;;31.14;55.63;101115.25;4971978;28;66649;-42
2022/02/19 03:39:25;;;;;;;;;;;;;;;31.29;55.73;101133.13;4985851;28;69970;-42
2022/02/19 03:41:57;;;;;;;;;;;;;;;31.32;55.96;101138.13;4983703;28;65800;-41
2022/02/19 03:44:28;;;;;;;;;;;;;;;31.33;55.11;101135.19;4974866;28;69624;-42
2022/02/19 03:47:06;;;;;;;;;;;;;;;31.35;55.46;101130.38;4955298;28;66172;-41
2022/02/19 03:49:53;;;;;;;;;;;;;;;31.38;55.09;101134.56;4995216;27;69086;-41
2022/02/19 03:52:23;;;;;;;;;;;;;;;31.41;55.45;101131.41;4974239;28;66978;-42
2022/02/19 03:54:54;;;;;;;;;;;;;;;31.42;54.96;101127.66;4963843;28;71704;-42
2022/02/19 03:57:24;;;;;;;;;;;;;;;31.45;54.97;101127.19;4972306;28;66019;-41
2022/02/19 03:59:57;;;;;;;;;;;;;;;31.47;55.06;101124.28;4977162;28;69691;-42
2022/02/19 04:02:26;;;;;;;;;;;;;;;31.50;54.93;101119.25;4980588;28;66651;-42
2022/02/19 04:04:56;;;;;;;;;;;;;;;31.51;54.92;101115.50;4976376;28;70509;-41
2022/02/19 04:07:26;;;;;;;;;;;;;;;31.54;54.92;101112.34;4975416;28;65578;-42
2022/02/19 04:10:01;;;;;;;;;;;;;;;31.56;54.91;101107.53;4975173;28;69919;-41
2022/02/19 04:12:34;;;;;;;;;;;;;;;31.59;55.14;101111.69;4976413;28;66731;-41
2022/02/19 04:15:08;;;;;;;;;;;;;;;31.61;54.56;101099.56;4977705;28;69645;-42
2022/02/19 04:17:42;;;;;;;;;;;;;;;31.63;54.91;101095.81;4975971;28;66028;-41
2022/02/19 04:20:15;;;;;;;;;;;;;;;31.64;54.62;101092.88;4946616;28;69301;-42
2022/02/19 04:22:46;;;;;;;;;;;;;;;31.65;54.31;101094.56;4984474;28;66383;-41
2022/02/19 04:25:16;;;;;;;;;;;;;;;31.69;54.27;101089.50;4982564;28;70278;-41
2022/02/19 04:27:46;;;;;;;;;;;;;;;31.71;54.31;101087.41;4966037;28;66319;-42
2022/02/19 04:30:16;;;;;;;;;;;;;;;31.72;53.75;101075.50;4974682;28;69946;-41
2022/02/19 04:32:56;;;;;;;;;;;;;;;31.73;53.90;101079.88;4975180;28;66967;-42
2022/02/19 04:35:28;;;;;;;;;;;;;;;31.75;53.91;101078.59;4978447;27;70686;-42
2022/02/19 04:37:58;;;;;;;;;;;;;;;31.76;53.92;101060.44;4980985;28;66562;-42
2022/02/19 04:40:32;;;;;;;;;;;;;;;31.77;54.04;101065.66;4975559;28;70580;-42
2022/02/19 04:43:04;;;;;;;;;;;;;;;31.78;54.00;101058.34;4993841;27;66388;-42
2022/02/19 04:45:37;;;;;;;;;;;;;;;31.79;53.69;101054.59;4976921;28;70389;-42
2022/02/19 04:48:08;;;;;;;;;;;;;;;31.81;53.97;101047.03;4992434;28;65685;-42
2022/02/19 04:50:40;;;;;;;;;;;;;;;31.81;53.57;101045.16;4969612;28;68943;-41
2022/02/19 04:53:15;;;;;;;;;;;;;;;31.84;53.77;101038.44;4983765;28;65610;-42
2022/02/19 04:55:44;;;;;;;;;;;;;;;31.85;56.12;101023.84;4978700;28;69603;-40
2022/02/19 04:58:18;;;;;;;;;;;;;;;31.86;58.25;101025.50;4968956;28;66717;-40
2022/02/19 05:00:48;;;;;;;;;;;;;;;31.85;59.12;101010.28;4974143;27;70474;-40
2022/02/19 05:03:18;;;;;;;;;;;;;;;31.82;59.02;101008.03;4981997;27;65933;-40
2022/02/19 05:06:14;;;;;;;;;;;;;;;31.88;59.09;101020.69;4981638;28;69684;-40
2022/02/19 05:08:53;;;;;;;;;;;;;;;31.86;59.17;101014.66;4971755;28;65611;-40
2022/02/19 05:11:26;;;;;;;;;;;;;;;31.86;59.03;101009.22;4959912;28;70620;-41
2022/02/19 05:13:57;;;;;;;;;;;;;;;31.85;59.57;101007.56;4977864;28;66918;-41
2022/02/19 05:16:29;;;;;;;;;;;;;;;31.88;59.77;101000.88;4967133;28;69907;-39
2022/02/19 05:19:04;;;;;;;;;;;;;;;31.91;59.43;100998.56;4976522;28;66646;-41
2022/02/19 05:21:38;;;;;;;;;;;;;;;31.95;59.36;100997.06;4975473;28;69879;-42
2022/02/19 05:24:12;;;;;;;;;;;;;;;31.98;59.07;100984.91;4962817;28;66944;-40
2022/02/19 05:26:47;;;;;;;;;;;;;;;32.01;59.33;100982.59;4970848;28;70100;-40
2022/02/19 05:29:22;;;;;;;;;;;;;;;32.02;59.18;100973.41;4975428;28;65654;-40
2022/02/19 05:31:53;;;;;;;;;;;;;;;32.02;59.16;100959.84;4972493;28;69850;-39
2022/02/19 05:34:29;;;;;;;;;;;;;;;32.04;59.22;100956.91;4976057;28;65909;-40
2022/02/19 05:37:03;;;;;;;;;;;;;;;32.03;59.11;100950.63;4980920;28;70283;-40
2022/02/19 05:39:39;;;;;;;;;;;;;;;32.10;58.82;100944.31;4974545;28;66626;-40
2022/02/19 05:42:13;;;;;;;;;;;;;;;32.12;58.94;100936.75;4957997;28;70028;-39
2022/02/19 05:44:46;;;;;;;;;;;;;;;32.13;59.17;100930.28;4981375;28;66851;-41
2022/02/19 05:47:17;;;;;;;;;;;;;;;32.14;58.86;100918.38;4976490;28;70466;-41
2022/02/19 05:50:07;;;;;;;;;;;;;;;32.18;58.69;100920.41;4978909;28;66357;-39
2022/02/19 05:52:54;;;;;;;;;;;;;;;32.19;57.98;100913.09;4981437;28;69418;-39
2022/02/19 05:55:33;;;;;;;;;;;;;;;32.22;57.88;100912.63;4988126;28;66688;-40
2022/02/19 05:58:06;;;;;;;;;;;;;;;32.20;57.99;100895.72;4985881;28;70406;-40
2022/02/19 06:00:39;;;;;;;;;;;;;;;32.22;57.26;100899.06;4984828;28;66026;-40
2022/02/19 06:03:09;;;;;;;;;;;;;;;32.22;57.45;100894.44;4987259;28;70284;-39
2022/02/19 06:05:40;;;;;;;;;;;;;;;32.29;57.46;100894.38;4978421;28;66873;-40
2022/02/19 06:08:10;;;;;;;;;;;;;;;32.31;57.13;100892.25;4969371;28;70076;-41
2022/02/19 06:10:42;;;;;;;;;;;;;;;32.34;56.48;100889.06;4971397;28;66128;-41
2022/02/19 06:13:14;;;;;;;;;;;;;;;32.36;55.96;100881.53;4972818;28;70569;-40
2022/02/19 06:15:49;;;;;;;;;;;;;;;32.40;56.97;100884.59;4974298;28;66952;-40
2022/02/19 06:18:26;;;;;;;;;;;;;;;32.41;56.06;100873.53;4971386;28;69812;-41
2022/02/19 06:20:55;;;;;;;;;;;;;;;32.40;57.13;100874.59;4974729;28;65665;-41
2022/02/19 06:23:38;;;;;;;;;;;;;;;32.42;57.10;100877.88;4980011;28;69163;-40
2022/02/19 06:26:08;;;;;;;;;;;;;;;32.42;56.90;100867.03;4977383;28;66065;-40
2022/02/19 06:28:53;;;;;;;;;;;;;;;32.46;56.49;100862.84;4963349;28;70073;-40
2022/02/19 06:31:24;;;;;;;;;;;;;;;32.47;56.67;100853.63;4970499;28;66768;-40
2022/02/19 06:33:54;;;;;;;;;;;;;;;32.47;57.23;100852.78;4977102;28;70130;-41
2022/02/19 06:36:25;;;;;;;;;;;;;;;32.43;57.57;100849.69;4976645;28;67035;-41
2022/02/19 06:38:54;;;;;;;;;;;;;;;32.43;57.59;100846.97;4974432;28;70076;-41
2022/02/19 06:41:30;;;;;;;;;;;;;;;32.41;58.11;100832.81;4973724;28;66561;-41
2022/02/19 06:44:22;;;;;;;;;;;;;;;32.40;58.02;100831.16;4983207;27;70265;-40
2022/02/19 06:46:55;;;;;;;;;;;;;;;32.41;58.43;100826.56;4972145;28;65916;-41
2022/02/19 06:49:25;;;;;;;;;;;;;;;32.40;57.85;100820.28;4979301;28;70485;-42
2022/02/19 06:51:59;;;;;;;;;;;;;;;32.44;58.08;100817.94;4989428;28;66062;-42
2022/02/19 06:54:29;;;;;;;;;;;;;;;32.47;58.00;100814.78;4976741;28;69893;-41
2022/02/19 06:57:00;;;;;;;;;;;;;;;32.47;58.33;100809.34;4976798;28;65366;-41
2022/02/19 06:59:30;;;;;;;;;;;;;;;32.47;58.32;100802.03;4978202;28;71685;-41
2022/02/19 07:02:00;;;;;;;;;;;;;;;32.52;57.92;100805.94;4975120;28;66175;-41
2022/02/19 07:04:30;;;;;;;;;;;;;;;32.51;58.34;100804.28;4978777;28;70628;-42
2022/02/19 07:07:06;;;;;;;;;;;;;;;32.54;57.99;100795.66;4974590;28;66247;-41
2022/02/19 07:09:36;;;;;;;;;;;;;;;32.57;58.24;100787.03;4978396;28;70168;-41
2022/02/19 07:12:06;;;;;;;;;;;;;;;32.55;58.18;100779.16;4960286;28;66766;-41
2022/02/19 07:14:36;;;;;;;;;;;;;;;32.55;58.45;100781.88;4982131;28;69880;-40
2022/02/19 07:17:10;;;;;;;;;;;;;;;32.57;58.28;100777.03;4977195;28;65641;-40
2022/02/19 07:19:40;;;;;;;;;;;;;;;32.61;58.45;100782.81;4981385;28;70281;-41
2022/02/19 07:22:12;;;;;;;;;;;;;;;32.65;58.36;100773.13;4978260;28;65839;-40
2022/02/19 07:24:43;;;;;;;;;;;;;;;32.62;58.33;100776.31;4977423;28;69612;-43
2022/02/19 07:27:15;;;;;;;;;;;;;;;32.64;58.42;100771.47;4963170;27;65801;-41
2022/02/19 07:29:45;;;;;;;;;;;;;;;32.71;58.30;100764.06;4983349;28;70415;-40
2022/02/19 07:32:16;;;;;;;;;;;;;;;32.75;58.06;100762.50;4978798;28;66876;-41
2022/02/19 07:34:47;;;;;;;;;;;;;;;32.79;57.69;100747.41;4960491;28;70457;-42
2022/02/19 07:37:17;;;;;;;;;;;;;;;32.83;57.60;100754.00;4987825;28;66105;-40
2022/02/19 07:39:47;;;;;;;;;;;;;;;32.85;57.25;100743.75;4952147;28;69738;-40
2022/02/19 07:42:17;;;;;;;;;;;;;;;32.86;57.33;100742.66;4990731;28;66826;-41
2022/02/19 07:45:05;;;;;;;;;;;;;;;32.88;57.42;100737.81;4987238;28;70007;-41
2022/02/19 07:48:05;;;;;;;;;;;;;;;32.89;57.20;100731.31;4976287;28;66583;-41
2022/02/19 07:59:55;;;;;;;;;;;;;;;32.87;60.19;100727.19;4990214;28;66029;-42
2022/02/19 08:02:24;;;;;;;;;;;;;;;32.96;60.13;100714.06;4981802;28;69785;-42
2022/02/19 08:04:55;;;;;;;;;;;;;;;32.98;60.41;100720.09;4964299;28;66306;-41
2022/02/19 08:07:26;;;;;;;;;;;;;;;32.93;60.75;100708.06;4981283;28;70164;-41
2022/02/19 08:09:57;;;;;;;;;;;;;;;32.91;61.06;100710.19;4981304;28;66402;-40
2022/02/19 08:12:27;;;;;;;;;;;;;;;33.05;60.70;100712.69;4942568;28;70774;-41
2022/02/19 08:14:57;;;;;;;;;;;;;;;32.99;60.65;100708.13;4976234;28;64732;-41
2022/02/19 08:17:29;;;;;;;;;;;;;;;32.89;61.16;100706.88;4981536;27;70380;-42
2022/02/19 08:19:59;;;;;;;;;;;;;;;32.87;60.97;100710.88;4983541;28;66282;-43
2022/02/19 08:22:28;;;;;;;;;;;;;;;32.88;61.50;100713.38;4982471;28;70422;-42
2022/02/19 08:24:59;;;;;;;;;;;;;;;32.93;61.76;100708.06;4982071;27;66696;-40
2022/02/19 08:27:29;;;;;;;;;;;;;;;32.93;61.84;100710.78;4975973;28;70127;-42
2022/02/19 08:29:58;;;;;;;;;;;;;;;32.88;61.68;100702.50;4965732;28;66336;-41
2022/02/19 08:32:28;;;;;;;;;;;;;;;32.99;60.16;100709.00;4977214;28;69467;-40
2022/02/19 08:34:58;;;;;;;;;;;;;;;33.09;58.66;100713.84;4979083;28;66611;-40
2022/02/19 08:37:29;;;;;;;;;;;;;;;33.10;58.37;100715.50;4975791;28;70628;-40
2022/02/19 08:39:59;;;;;;;;;;;;;;;33.06;58.34;100719.75;4975565;28;66496;-40
2022/02/19 08:42:29;;;;;;;;;;;;;;;33.07;57.78;100710.53;4976014;28;69745;-40
2022/02/19 08:44:59;;;;;;;;;;;;;;;33.08;57.59;100706.75;4971843;28;66617;-42
2022/02/19 08:47:29;;;;;;;;;;;;;;;33.06;57.81;100711.59;4985235;28;70571;-42
2022/02/19 08:50:01;;;;;;;;;;;;;;;33.05;57.73;100707.25;4974377;28;66205;-40
2022/02/19 08:52:32;;;;;;;;;;;;;;;33.01;57.90;100706.88;4983932;27;70224;-40
2022/02/19 08:55:01;;;;;;;;;;;;;;;33.01;57.49;100700.63;4982827;28;65776;-39
2022/02/19 08:57:31;;;;;;;;;;;;;;;32.97;57.68;100708.41;4989231;28;69885;-40
2022/02/19 09:00:01;;;;;;;;;;;;;;;32.99;57.77;100710.84;4976791;28;67132;-40
2022/02/19 09:02:31;;;;;;;;;;;;;;;32.99;57.90;100708.13;4981690;28;70537;-40
2022/02/19 09:05:01;;;;;;;;;;;;;;;32.97;57.81;100704.84;4971501;28;66718;-39
2022/02/19 09:07:33;;;;;;;;;;;;;;;32.97;58.23;100704.84;4970785;28;69560;-40
2022/02/19 09:10:04;;;;;;;;;;;;;;;33.01;57.94;100706.06;4977392;28;66448;-40
2022/02/19 09:12:34;;;;;;;;;;;;;;;33.02;57.60;100708.53;4980894;28;69703;-40
2022/02/19 09:15:04;;;;;;;;;;;;;;;32.99;57.60;100711.72;4971705;28;66206;-40
2022/02/19 09:17:34;;;;;;;;;;;;;;;32.99;57.77;100713.56;4979187;28;68800;-39
2022/02/19 09:20:04;;;;;;;;;;;;;;;33.01;57.28;100716.91;4978468;28;65996;-42
2022/02/19 09:22:34;;;;;;;;;;;;;;;32.99;57.23;100708.13;4978037;28;69044;-40
2022/02/19 09:25:05;;;;;;;;;;;;;;;33.02;57.60;100719.41;4977961;28;66760;-40
2022/02/19 09:27:35;;;;;;;;;;;;;;;32.96;57.91;100719.50;4974150;28;70172;-39
2022/02/19 09:30:05;;;;;;;;;;;;;;;33.00;57.13;100720.72;4969274;28;65345;-40
2022/02/19 09:32:35;;;;;;;;;;;;;;;32.94;57.11;100723.28;4973086;28;70106;-39
2022/02/19 09:35:05;;;;;;;;;;;;;;;32.92;57.45;100719.16;4974680;28;65530;-40
2022/02/19 09:37:36;;;;;;;;;;;;;;;32.93;56.91;100721.63;4974595;28;69987;-39
2022/02/19 09:40:06;;;;;;;;;;;;;;;32.97;56.17;100721.97;4972950;28;66384;-40
2022/02/19 09:42:36;;;;;;;;;;;;;;;32.94;56.29;100723.28;4982067;28;69703;-39
2022/02/19 09:45:07;;;;;;;;;;;;;;;32.94;56.28;100717.84;4971207;28;67404;-40
2022/02/19 09:47:39;;;;;;;;;;;;;;;32.92;56.52;100719.97;4982087;28;70345;-40
2022/02/19 09:50:10;;;;;;;;;;;;;;;32.89;55.94;100720.44;4943715;28;65133;-40
2022/02/19 09:52:40;;;;;;;;;;;;;;;32.88;55.93;100724.25;4975683;28;69850;-39
2022/02/19 09:55:11;;;;;;;;;;;;;;;32.87;55.68;100721.75;4961689;28;65596;-39
2022/02/19 09:57:41;;;;;;;;;;;;;;;32.88;55.67;100718.81;4978748;28;70609;-40
2022/02/19 10:00:11;;;;;;;;;;;;;;;32.87;55.32;100719.84;4944864;28;65425;-40
2022/02/19 10:02:44;;;;;;;;;;;;;;;32.84;55.68;100712.19;4985577;28;70769;-40
2022/02/19 10:05:15;;;;;;;;;;;;;;;32.79;55.43;100717.53;4966862;28;66607;-39
2022/02/19 10:07:59;;;;;;;;;;;;;;;32.79;54.79;100713.97;4971383;28;69835;-39
2022/02/19 10:10:29;;;;;;;;;;;;;;;32.71;55.22;100709.72;4967519;28;66684;-40
2022/02/19 10:12:59;;;;;;;;;;;;;;;32.66;54.98;100701.47;4976296;28;70346;-40
2022/02/19 10:15:39;;;;;;;;;;;;;;;32.66;55.21;100715.03;4974571;28;66455;-40
2022/02/19 10:18:22;;;;;;;;;;;;;;;32.64;55.21;100714.44;4970263;28;70322;-40
2022/02/19 10:20:53;;;;;;;;;;;;;;;32.61;54.91;100718.47;4989281;28;67473;-42
2022/02/19 10:23:23;;;;;;;;;;;;;;;32.55;54.83;100718.59;4968236;28;69498;-40
2022/02/19 10:26:00;;;;;;;;;;;;;;;32.51;55.13;100717.38;4979247;28;67351;-40
2022/02/19 10:28:30;;;;;;;;;;;;;;;32.48;55.96;100724.13;4976758;28;69014;-41
2022/02/19 10:31:10;;;;;;;;;;;;;;;32.46;56.11;100729.78;4974969;28;66301;-41
2022/02/19 10:33:40;;;;;;;;;;;;;;;32.42;55.93;100717.69;4978730;28;69394;-40
2022/02/19 10:36:14;;;;;;;;;;;;;;;32.41;55.69;100721.50;4976133;28;65932;-40
2022/02/19 10:38:53;;;;;;;;;;;;;;;32.40;55.66;100727.13;4958279;28;70795;-40
2022/02/19 10:41:36;;;;;;;;;;;;;;;32.38;55.61;100721.97;4977075;28;68195;-41
2022/02/19 10:44:22;;;;;;;;;;;;;;;32.37;55.72;100719.47;4976012;27;69779;-40
2022/02/19 10:46:54;;;;;;;;;;;;;;;32.36;55.79;100721.38;4974547;28;66640;-40
2022/02/19 10:49:25;;;;;;;;;;;;;;;32.34;55.86;100723.47;4973583;28;69532;-40
2022/02/19 10:51:55;;;;;;;;;;;;;;;32.32;55.75;100717.47;4978013;28;65403;-40
2022/02/19 10:54:25;;;;;;;;;;;;;;;32.30;55.17;100724.19;4977380;28;69161;-40
2022/02/19 10:56:55;;;;;;;;;;;;;;;32.25;55.01;100719.47;4951299;27;65463;-40
2022/02/19 10:59:29;;;;;;;;;;;;;;;32.19;55.13;100725.81;4973618;28;69383;-40
2022/02/19 11:01:59;;;;;;;;;;;;;;;32.21;55.23;100734.56;4972498;28;66757;-40
2022/02/19 11:04:30;;;;;;;;;;;;;;;32.13;55.71;100732.19;4972415;28;70549;-40
2022/02/19 11:06:59;;;;;;;;;;;;;;;32.14;55.92;100739.25;4975109;28;65800;-41
2022/02/19 11:09:30;;;;;;;;;;;;;;;32.14;56.10;100739.25;4972181;28;69756;-40
2022/02/19 11:12:00;;;;;;;;;;;;;;;32.11;56.47;100745.16;4976318;28;66258;-42
2022/02/19 11:14:30;;;;;;;;;;;;;;;32.08;56.33;100742.91;4970996;28;70428;-41
2022/02/19 11:17:01;;;;;;;;;;;;;;;32.02;56.89;100741.94;4970578;28;66397;-41
2022/02/19 11:19:31;;;;;;;;;;;;;;;31.97;57.05;100739.91;4976465;28;70478;-41
2022/02/19 11:22:02;;;;;;;;;;;;;;;31.97;57.00;100739.09;4976849;28;65878;-41
2022/02/19 11:24:33;;;;;;;;;;;;;;;31.93;57.35;100744.16;4970325;28;69874;-43
2022/02/19 11:27:04;;;;;;;;;;;;;;;31.93;57.51;100749.59;4972154;28;66570;-41
2022/02/19 11:29:35;;;;;;;;;;;;;;;31.91;57.99;100740.84;4986105;28;71798;-41
2022/02/19 11:32:05;;;;;;;;;;;;;;;31.90;57.94;100743.75;4977085;27;66636;-41
2022/02/19 11:34:35;;;;;;;;;;;;;;;31.87;58.19;100736.06;4973584;28;70716;-42
2022/02/19 11:37:16;;;;;;;;;;;;;;;31.82;58.50;100736.78;4972011;28;66445;-40
2022/02/19 11:40:11;;;;;;;;;;;;;;;31.80;58.34;100738.88;4975660;28;70448;-41
2022/02/19 11:42:49;;;;;;;;;;;;;;;31.78;58.48;100735.56;4986049;28;66040;-40
2022/02/19 11:45:19;;;;;;;;;;;;;;;31.76;58.82;100738.53;4979748;28;68779;-41
2022/02/19 11:47:50;;;;;;;;;;;;;;;31.75;58.50;100746.88;4980222;28;66264;-41
2022/02/19 11:50:21;;;;;;;;;;;;;;;31.74;58.84;100753.38;4970405;28;69913;-47
2022/02/19 11:53:13;;;;;;;;;;;;;;;31.76;58.39;100754.81;4977892;28;65502;-40
2022/02/19 11:55:44;;;;;;;;;;;;;;;31.73;58.64;100754.41;4976218;28;70576;-41
2022/02/19 11:58:18;;;;;;;;;;;;;;;31.72;59.42;100758.19;4977569;28;66454;-40
2022/02/19 12:00:48;;;;;;;;;;;;;;;31.71;59.63;100767.41;4980005;27;71395;-50
2022/02/19 12:03:20;;;;;;;;;;;;;;;31.67;60.12;100766.19;4975620;28;66849;-41
2022/02/19 12:06:16;;;;;;;;;;;;;;;31.67;60.36;100766.19;4960564;28;70244;-40
2022/02/19 12:08:47;;;;;;;;;;;;;;;31.59;60.46;100770.88;4975936;27;66330;-41
2022/02/19 12:11:18;;;;;;;;;;;;;;;31.59;60.27;100770.88;4960308;28;69118;-40
2022/02/19 12:13:49;;;;;;;;;;;;;;;31.58;59.98;100766.50;4974263;27;67644;-40
2022/02/19 12:16:32;;;;;;;;;;;;;;;31.52;59.69;100764.69;4977230;28;70198;-41
2022/02/19 12:19:04;;;;;;;;;;;;;;;31.49;58.67;100757.03;4978220;28;65722;-41
2022/02/19 12:21:34;;;;;;;;;;;;;;;31.48;59.12;100766.22;4984316;28;70439;-42
2022/02/19 12:24:21;;;;;;;;;;;;;;;31.44;59.65;100767.72;4976993;28;66792;-41
2022/02/19 12:26:55;;;;;;;;;;;;;;;31.51;60.07;100768.47;4974887;28;69387;-41
2022/02/19 12:29:25;;;;;;;;;;;;;;;31.52;59.86;100774.72;4976515;28;65830;-40
2022/02/19 12:32:05;;;;;;;;;;;;;;;31.58;59.21;100777.34;4978089;28;69692;-41
2022/02/19 12:34:37;;;;;;;;;;;;;;;31.56;59.41;100776.72;4967814;28;65900;-41
2022/02/19 12:37:10;;;;;;;;;;;;;;;31.57;59.45;100778.41;4981682;28;69797;-40
2022/02/19 12:39:45;;;;;;;;;;;;;;;31.55;59.36;100785.94;4975138;28;66818;-40
2022/02/19 12:42:17;;;;;;;;;;;;;;;31.51;59.10;100783.88;4963725;28;69724;-41
2022/02/19 12:44:48;;;;;;;;;;;;;;;31.50;60.08;100787.66;4977020;28;66291;-41
2022/02/19 12:47:18;;;;;;;;;;;;;;;31.47;60.30;100786.25;4980294;28;70469;-42
2022/02/19 12:49:48;;;;;;;;;;;;;;;31.46;60.49;100784.59;4943792;28;66135;-41
2022/02/19 12:52:20;;;;;;;;;;;;;;;31.45;60.89;100785.63;4973546;28;69483;-40
2022/02/19 12:54:51;;;;;;;;;;;;;;;31.41;61.50;100789.84;4978548;28;66757;-41
2022/02/19 12:57:22;;;;;;;;;;;;;;;31.44;61.13;100794.00;4970449;28;69796;-41
2022/02/19 12:59:53;;;;;;;;;;;;;;;31.41;61.52;100800.69;4979548;28;65773;-41
2022/02/19 13:02:25;;;;;;;;;;;;;;;31.41;61.52;100808.84;4989735;28;69788;-43
2022/02/19 13:04:59;;;;;;;;;;;;;;;31.41;61.81;100811.53;4978651;28;66675;-40
2022/02/19 13:07:31;;;;;;;;;;;;;;;31.35;62.22;100807.00;4977974;28;69194;-41
2022/02/19 13:10:14;;;;;;;;;;;;;;;31.30;63.43;100820.41;4977683;28;65397;-41
2022/02/19 13:12:46;;;;;;;;;;;;;;;31.32;63.13;100826.44;4952000;28;70389;-41